Time;durP1;ratioP1;P1;durP2;ratioP2;P2;SDS_P1;SDS_P2;PMS_P1;PMS_P2;Temp;Humidity;BMP_temperature;BMP_pressure;BME280_temperature;BME280_humidity;BME280_pressure;Samples;Min_cycle;Max_cycle;Signal;HPM_P1;HPM_P2
2022/12/27 00:01:34;;;;;;;14.80;11.50;;;;;;;8.02;100.00;99626.63;99965;1291;108607;-70
2022/12/27 00:04:01;;;;;;;15.10;11.10;;;;;;;8.02;99.89;99630.27;99993;1284;97834;-70
2022/12/27 00:06:29;;;;;;;13.60;10.50;;;;;;;8.01;99.95;99625.45;99839;1284;138122;-70
2022/12/27 00:08:57;;;;;;;13.20;10.10;;;;;;;8.02;99.91;99618.83;99923;1287;107066;-70
2022/12/27 00:11:28;;;;;;;14.00;10.00;;;;;;;8.04;99.93;99623.80;99930;1290;138771;-70
2022/12/27 00:13:55;;;;;;;15.70;10.50;;;;;;;8.05;99.92;99618.73;100056;1291;107493;-70
2022/12/27 00:16:23;;;;;;;14.10;10.80;;;;;;;8.06;99.83;99624.06;99823;1291;139692;-70
2022/12/27 00:18:51;;;;;;;15.00;10.40;;;;;;;8.09;99.94;99626.77;99962;1284;111577;-70
2022/12/27 00:21:20;;;;;;;14.90;10.20;;;;;;;8.10;99.81;99621.54;100045;1283;107738;-70
2022/12/27 00:23:49;;;;;;;14.10;10.30;;;;;;;8.11;99.82;99622.19;99855;1288;139115;-70
2022/12/27 00:26:18;;;;;;;13.30;9.10;;;;;;;8.12;99.57;99622.52;99870;1291;107293;-70
2022/12/27 00:28:46;;;;;;;13.40;9.70;;;;;;;8.13;99.52;99620.06;99884;1284;138486;-70
2022/12/27 00:31:14;;;;;;;12.80;9.50;;;;;;;8.13;99.51;99618.83;100001;1290;111063;-70
2022/12/27 00:33:43;;;;;;;13.70;10.20;;;;;;;8.13;99.31;99617.44;99875;1290;107268;-70
2022/12/27 00:36:14;;;;;;;12.70;9.40;;;;;;;8.13;99.33;99612.95;99892;1284;138733;-70
2022/12/27 00:38:41;;;;;;;13.50;9.00;;;;;;;8.12;99.22;99616.96;99961;1292;107548;-70
2022/12/27 00:41:08;;;;;;;14.70;9.80;;;;;;;8.13;99.28;99618.14;99838;1291;138047;-70
2022/12/27 00:43:36;;;;;;;12.00;9.20;;;;;;;8.11;98.90;99618.20;100027;1282;111468;-70
2022/12/27 00:46:03;;;;;;;11.50;9.10;;;;;;;8.09;98.91;99616.36;99893;1284;109756;-70
2022/12/27 00:48:31;;;;;;;16.40;10.30;;;;;;;8.08;98.83;99621.08;99782;1284;139221;-69
2022/12/27 00:51:01;;;;;;;16.50;9.80;;;;;;;8.09;99.06;99632.30;99941;1290;107229;-70
2022/12/27 00:53:30;;;;;;;15.50;9.90;;;;;;;8.10;99.10;99627.60;99732;1284;138156;-70
2022/12/27 00:55:58;;;;;;;15.30;9.90;;;;;;;8.11;99.13;99629.11;99904;1291;110984;-70
2022/12/27 00:58:25;;;;;;;13.10;9.10;;;;;;;8.12;99.10;99630.64;99839;1284;138507;-70
2022/12/27 01:00:53;;;;;;;11.70;9.40;;;;;;;8.14;98.94;99627.29;99886;1291;97824;-70
2022/12/27 01:03:21;;;;;;;16.40;9.20;;;;;;;8.17;99.03;99619.92;99893;1284;106740;-70
2022/12/27 01:05:48;;;;;;;12.60;9.40;;;;;;;8.20;99.22;99626.38;99822;1282;138233;-70
2022/12/27 01:08:15;;;;;;;16.20;9.70;;;;;;;8.23;98.97;99626.46;99918;1291;111164;-70
2022/12/27 01:10:42;;;;;;;12.10;8.60;;;;;;;8.25;98.97;99622.77;99845;1290;139464;-70
2022/12/27 01:13:10;;;;;;;13.50;8.70;;;;;;;8.25;98.56;99622.08;100013;1291;97906;-70
2022/12/27 01:15:40;;;;;;;14.10;8.60;;;;;;;8.24;98.26;99628.86;99920;1283;108431;-71
2022/12/27 01:18:07;;;;;;;11.70;8.20;;;;;;;8.24;98.32;99625.55;99770;1284;138170;-70
2022/12/27 01:20:37;;;;;;;11.10;7.90;;;;;;;8.26;98.38;99620.83;99983;1284;112126;-70
2022/12/27 01:23:04;;;;;;;11.60;8.40;;;;;;;8.29;98.34;99613.30;99828;1283;138090;-70
2022/12/27 01:25:31;;;;;;;10.80;8.30;;;;;;;8.33;98.36;99619.40;99931;1290;97931;-71
2022/12/27 01:27:58;;;;;;;9.10;7.20;;;;;;;8.34;98.17;99624.39;99921;1284;107336;-70
2022/12/27 01:30:25;;;;;;;12.00;8.00;;;;;;;8.35;97.98;99615.18;99827;1284;137981;-71
2022/12/27 01:32:52;;;;;;;11.30;8.10;;;;;;;8.38;97.96;99615.10;99980;1284;110198;-71
2022/12/27 01:35:19;;;;;;;10.60;8.20;;;;;;;8.39;97.94;99611.05;99831;1282;138629;-70
2022/12/27 01:37:46;;;;;;;11.30;7.90;;;;;;;8.42;97.84;99608.20;99968;1283;97851;-70
2022/12/27 01:40:13;;;;;;;12.40;8.40;;;;;;;8.41;97.57;99620.17;99944;1290;108499;-70
2022/12/27 01:42:54;;;;;;;10.10;7.80;;;;;;;8.38;97.43;99621.67;99931;1284;97808;-70
2022/12/27 01:45:23;;;;;;;13.60;8.20;;;;;;;8.33;97.01;99623.20;99950;1288;111796;-70
2022/12/27 01:47:59;;;;;;;13.80;8.00;;;;;;;8.29;97.04;99630.96;100384;1282;138560;-69
2022/12/27 01:50:32;;;;;;;14.30;7.90;;;;;;;8.29;97.35;99630.62;100010;1290;97945;-70
2022/12/27 01:53:06;;;;;;;9.50;6.80;;;;;;;8.32;97.57;99625.32;99837;1297;138409;-70
2022/12/27 01:55:40;;;;;;;11.50;6.60;;;;;;;8.32;97.26;99626.00;99913;1276;98502;-70
2022/12/27 01:58:11;;;;;;;7.60;6.30;;;;;;;8.32;97.12;99619.43;99992;1291;111221;-69
2022/12/27 02:00:42;;;;;;;8.30;6.60;;;;;;;8.33;97.29;99612.30;99912;1294;138017;-69
2022/12/27 02:03:10;;;;;;;9.40;6.00;;;;;;;8.35;97.22;99619.35;99867;1290;97837;-69
2022/12/27 02:05:40;;;;;;;8.30;6.20;;;;;;;8.34;96.95;99613.14;99707;1291;137855;-70
2022/12/27 02:08:23;;;;;;;9.70;6.20;;;;;;;8.35;96.98;99613.82;99783;1288;97885;-70
2022/12/27 02:10:52;;;;;;;9.30;6.70;;;;;;;8.37;96.70;99611.15;99765;1283;138328;-70
2022/12/27 02:13:20;;;;;;;8.90;6.30;;;;;;;8.36;96.72;99611.84;99902;1291;106649;-70
2022/12/27 02:15:47;;;;;;;9.20;6.70;;;;;;;8.38;96.72;99606.42;99973;1292;99667;-70
2022/12/27 02:18:14;;;;;;;10.20;7.30;;;;;;;8.38;96.53;99612.48;99749;1282;137032;-69
2022/12/27 02:21:01;;;;;;;11.40;6.40;;;;;;;8.36;96.45;99609.27;99895;1284;97920;-69
2022/12/27 02:24:03;;;;;;;7.30;6.00;;;;;;;8.32;96.14;99611.11;99857;1290;138548;-69
2022/12/27 02:26:41;;;;;;;8.00;6.00;;;;;;;8.27;96.09;99610.26;99913;1290;106894;-69
2022/12/27 02:29:27;;;;;;;7.80;5.70;;;;;;;8.25;96.08;99611.16;99831;1284;138143;-70
2022/12/27 02:32:03;;;;;;;6.60;5.40;;;;;;;8.23;96.01;99616.77;99964;1290;107355;-69
2022/12/27 02:34:37;;;;;;;8.90;5.90;;;;;;;8.19;95.81;99615.35;99743;1290;138040;-69
2022/12/27 02:37:08;;;;;;;8.30;6.30;;;;;;;8.17;96.06;99615.59;99984;1288;109670;-70
2022/12/27 02:39:39;;;;;;;7.40;5.50;;;;;;;8.16;95.92;99617.70;99942;1284;107262;-69
2022/12/27 02:53:18;;;;;;;7.70;5.80;;;;;;;8.06;95.76;99632.02;99015;1295;138101;-70
2022/12/27 02:59:09;;;;;;;8.60;6.20;;;;;;;8.04;95.99;99628.27;99130;1299;139073;-70
2022/12/27 03:04:46;;;;;;;7.70;5.90;;;;;;;8.06;96.17;99632.91;99074;1295;138396;-70
2022/12/27 03:07:26;;;;;;;8.80;6.80;;;;;;;8.04;95.76;99634.89;99154;1300;108513;-70
2022/12/27 03:16:10;;;;;;;11.50;7.30;;;;;;;7.90;95.77;99653.66;99251;1306;97852;-70
2022/12/27 03:18:53;;;;;;;7.50;5.00;;;;;;;7.81;94.88;99675.73;99048;1294;138058;-69
2022/12/27 03:27:00;;;;;;;4.30;2.70;;;;;;;7.10;89.72;99710.11;99013;1303;106842;-69
2022/12/27 03:35:09;;;;;;;4.80;1.70;;;;;;;6.41;88.88;99751.55;99518;1290;138017;-69
2022/12/27 03:40:33;;;;;;;4.00;1.50;;;;;;;5.78;84.71;99759.46;99626;1290;137253;-70
2022/12/27 03:43:11;;;;;;;4.40;1.50;;;;;;;5.49;84.40;99767.11;99533;1289;97960;-69
2022/12/27 03:48:53;;;;;;;5.90;1.40;;;;;;;5.04;84.99;99794.80;99500;1289;138169;-69
2022/12/27 03:51:24;;;;;;;4.40;1.00;;;;;;;4.87;84.90;99796.46;99548;1296;98450;-69
2022/12/27 03:53:56;;;;;;;4.70;0.80;;;;;;;4.73;84.90;99793.77;99658;1289;138027;-69
2022/12/27 03:56:24;;;;;;;4.70;1.30;;;;;;;4.63;85.46;99797.35;99558;1289;97756;-69
2022/12/27 03:58:52;;;;;;;6.40;1.20;;;;;;;4.57;85.36;99809.67;99525;1297;137143;-70
2022/12/27 04:01:19;;;;;;;6.80;1.80;;;;;;;4.49;85.61;99818.05;99556;1298;107173;-70
2022/12/27 04:03:46;;;;;;;5.00;1.20;;;;;;;4.45;86.26;99827.23;99571;1296;98371;-70
2022/12/27 04:06:13;;;;;;;7.30;1.20;;;;;;;4.38;86.68;99829.75;99890;1284;137315;-70
2022/12/27 04:36:11;;;;;;;6.00;1.50;;;;;;;4.19;87.32;99869.75;100473;1287;137166;-70
2022/12/27 04:38:38;;;;;;;6.70;1.30;;;;;;;4.16;87.27;99877.70;100243;1290;110875;-70
2022/12/27 04:55:15;;;;;;;6.70;2.20;;;;;;;4.17;87.37;99892.66;99893;1293;107513;-70
2022/12/27 04:57:42;;;;;;;5.40;1.80;;;;;;;4.15;87.25;99903.19;99661;1296;97828;-70
2022/12/27 05:02:58;;;;;;;10.80;1.60;;;;;;;4.11;87.71;99908.88;99640;1293;97826;-70
2022/12/27 05:05:26;;;;;;;9.80;1.70;;;;;;;4.08;88.00;99915.11;99431;1293;137810;-70
2022/12/27 05:16:09;;;;;;;6.00;1.60;;;;;;;4.06;88.75;99938.72;99479;1290;97916;-70
2022/12/27 05:18:36;;;;;;;7.80;1.60;;;;;;;4.06;88.51;99940.45;99379;1295;139862;-69
2022/12/27 05:21:05;;;;;;;7.90;2.00;;;;;;;4.05;88.62;99946.47;99479;1288;107716;-70
2022/12/27 05:26:23;;;;;;;11.80;2.20;;;;;;;4.03;88.60;99944.43;99871;1283;108923;-70
2022/12/27 05:28:51;;;;;;;12.00;2.40;;;;;;;3.97;88.28;99951.55;99826;1291;137556;-70
2022/12/27 05:31:18;;;;;;;7.90;1.90;;;;;;;3.88;88.14;99954.73;99966;1294;111427;-70
2022/12/27 05:33:45;;;;;;;11.40;2.20;;;;;;;3.81;87.94;99956.36;99821;1291;108019;-70
2022/12/27 05:36:13;;;;;;;9.50;2.00;;;;;;;3.72;87.72;99961.23;99756;1290;139509;-69
2022/12/27 05:38:40;;;;;;;8.30;1.90;;;;;;;3.67;87.91;99966.61;99806;1291;106839;-70
2022/12/27 05:41:07;;;;;;;7.40;2.00;;;;;;;3.61;87.84;99973.38;99766;1284;137916;-69
2022/12/27 05:43:36;;;;;;;8.50;1.70;;;;;;;3.57;87.94;99981.30;99854;1284;112880;-69
2022/12/27 05:46:09;;;;;;;8.20;2.60;;;;;;;3.55;88.12;99985.79;99910;1291;108756;-69
2022/12/27 05:48:37;;;;;;;15.00;2.90;;;;;;;3.51;88.21;99990.29;99939;1283;137910;-69
2022/12/27 05:51:09;;;;;;;10.40;2.10;;;;;;;3.49;88.15;99989.28;99932;1291;108915;-70
2022/12/27 05:53:36;;;;;;;9.60;2.10;;;;;;;3.48;88.31;99993.93;99993;1284;137771;-69
2022/12/27 05:56:04;;;;;;;9.50;2.10;;;;;;;3.47;88.33;99994.98;100083;1291;110828;-69
2022/12/27 05:58:31;;;;;;;8.00;2.50;;;;;;;3.46;88.37;99996.70;100098;1291;137448;-70
2022/12/27 06:00:59;;;;;;;9.90;2.30;;;;;;;3.43;88.62;100003.09;99986;1282;99105;-70
2022/12/27 06:03:26;;;;;;;8.20;2.10;;;;;;;3.42;88.47;100013.58;99945;1289;107001;-69
2022/12/27 06:05:58;;;;;;;8.10;2.00;;;;;;;3.40;88.46;100015.64;99821;1284;137894;-69
2022/12/27 06:08:26;;;;;;;9.00;2.20;;;;;;;3.37;88.41;100025.27;99953;1290;110597;-69
2022/12/27 06:11:01;;;;;;;11.40;2.70;;;;;;;3.34;88.28;100027.88;99836;1291;138711;-69
2022/12/27 06:13:28;;;;;;;9.60;2.60;;;;;;;3.33;88.34;100030.80;99965;1291;97700;-69
2022/12/27 06:15:55;;;;;;;7.90;2.50;;;;;;;3.32;88.14;100032.20;99960;1290;107498;-70
2022/12/27 06:18:22;;;;;;;13.80;3.00;;;;;;;3.30;87.97;100033.41;99876;1290;137247;-70
2022/12/27 06:20:50;;;;;;;13.00;2.50;;;;;;;3.26;87.90;100033.78;99962;1290;110142;-69
2022/12/27 06:23:16;;;;;;;8.20;2.40;;;;;;;3.18;87.44;100036.22;99795;1290;137471;-69
2022/12/27 06:25:43;;;;;;;10.80;2.60;;;;;;;3.13;87.46;100034.89;99979;1292;97764;-69
2022/12/27 06:28:11;;;;;;;8.30;2.50;;;;;;;3.09;87.81;100036.29;99925;1290;107850;-70
2022/12/27 06:30:38;;;;;;;12.40;2.80;;;;;;;3.06;87.74;100038.18;99749;1291;137905;-70
2022/12/27 06:33:05;;;;;;;13.90;2.50;;;;;;;3.01;87.80;100044.71;99919;1284;109240;-69
2022/12/27 06:35:33;;;;;;;8.40;2.60;;;;;;;3.01;87.85;100056.05;99760;1290;138753;-69
2022/12/27 06:37:59;;;;;;;9.60;3.20;;;;;;;3.01;87.94;100055.54;99909;1291;97738;-70
2022/12/27 06:40:27;;;;;;;11.00;3.20;;;;;;;2.99;87.65;100061.04;99869;1280;106754;-70
2022/12/27 06:42:54;;;;;;;11.40;3.60;;;;;;;2.98;87.77;100069.46;99921;1290;97685;-70
2022/12/27 06:45:21;;;;;;;13.20;3.30;;;;;;;2.98;87.87;100069.99;99844;1290;111172;-70
2022/12/27 06:47:48;;;;;;;11.00;3.50;;;;;;;2.96;87.67;100073.27;99815;1290;137497;-69
2022/12/27 06:50:15;;;;;;;9.50;2.80;;;;;;;2.94;87.66;100076.36;99999;1290;98371;-70
2022/12/27 06:52:42;;;;;;;9.70;2.90;;;;;;;2.92;87.69;100079.29;99860;1290;138245;-70
2022/12/27 06:55:09;;;;;;;11.20;2.30;;;;;;;2.92;87.84;100079.81;99919;1290;98079;-69
2022/12/27 06:57:37;;;;;;;11.30;3.10;;;;;;;2.91;87.56;100082.22;101354;1298;113617;-70
2022/12/27 07:00:08;;;;;;;13.00;2.70;;;;;;;2.89;87.56;100084.30;100036;1292;138230;-69
2022/12/27 07:02:35;;;;;;;13.10;3.20;;;;;;;2.91;87.76;100095.45;99874;1290;97726;-68
2022/12/27 07:05:03;;;;;;;13.20;3.00;;;;;;;2.94;87.60;100101.79;99722;1290;138148;-70
2022/12/27 07:07:30;;;;;;;11.80;3.50;;;;;;;2.98;87.52;100108.11;99900;1285;97859;-69
2022/12/27 07:09:57;;;;;;;11.90;3.60;;;;;;;3.01;87.47;100116.17;100000;1290;111712;-68
2022/12/27 07:12:24;;;;;;;13.60;4.00;;;;;;;3.04;87.55;100125.77;99928;1283;137848;-69
2022/12/27 07:14:51;;;;;;;14.50;3.80;;;;;;;3.07;87.25;100122.19;99878;1291;98312;-70
2022/12/27 07:17:19;;;;;;;14.20;4.20;;;;;;;3.07;87.26;100126.98;99675;1287;137643;-71
2022/12/27 07:19:47;;;;;;;13.70;4.40;;;;;;;3.07;87.22;100133.01;99927;1291;97804;-71
2022/12/27 07:22:14;;;;;;;12.60;3.30;;;;;;;3.06;87.16;100136.27;100758;1283;112306;-71
2022/12/27 07:24:41;;;;;;;12.10;3.50;;;;;;;3.07;87.12;100134.55;99757;1291;139356;-71
2022/12/27 07:27:09;;;;;;;11.20;3.30;;;;;;;3.10;87.41;100138.48;99962;1292;98843;-72
2022/12/27 07:29:36;;;;;;;11.20;3.40;;;;;;;3.19;87.61;100138.61;99787;1298;139557;-71
2022/12/27 07:32:11;;;;;;;17.90;3.30;;;;;;;3.33;87.60;100143.54;99974;1298;97840;-72
2022/12/27 07:34:38;;;;;;;10.30;2.90;;;;;;;3.46;87.38;100149.51;99842;1283;138026;-71
2022/12/27 07:37:05;;;;;;;11.70;3.00;;;;;;;3.57;87.35;100154.94;100027;1290;107329;-71
2022/12/27 07:39:32;;;;;;;10.30;3.30;;;;;;;3.69;87.07;100156.59;100008;1298;99423;-71
2022/12/27 07:41:59;;;;;;;14.90;2.80;;;;;;;3.77;86.81;100160.84;99877;1291;138312;-72
2022/12/27 07:44:36;;;;;;;11.10;2.30;;;;;;;3.86;86.69;100161.48;100009;1290;97870;-70
2022/12/27 07:47:03;;;;;;;11.30;2.80;;;;;;;3.95;86.32;100165.73;99881;1291;138022;-71
2022/12/27 07:49:30;;;;;;;11.80;2.90;;;;;;;3.98;85.74;100169.33;99943;1284;107399;-70
2022/12/27 07:51:58;;;;;;;12.90;3.40;;;;;;;4.00;85.82;100172.23;100070;1290;97813;-70
2022/12/27 07:54:25;;;;;;;12.00;3.30;;;;;;;4.12;86.05;100175.58;99830;1291;137561;-70
2022/12/27 07:56:52;;;;;;;10.80;3.30;;;;;;;4.32;86.12;100178.35;99891;1288;97827;-70
2022/12/27 07:59:21;;;;;;;12.90;3.50;;;;;;;4.47;85.40;100178.92;99853;1291;138322;-68
2022/12/27 08:04:31;;;;;;;9.80;2.90;;;;;;;4.49;84.68;100180.99;100378;1291;98472;-70
2022/12/27 08:07:04;;;;;;;16.10;3.70;;;;;;;4.50;84.64;100185.63;99185;1284;1003099;-70
2022/12/27 08:09:35;;;;;;;15.80;4.00;;;;;;;4.52;84.45;100190.44;99820;1290;97839;-70
2022/12/27 08:12:04;;;;;;;14.30;3.60;;;;;;;4.48;84.24;100197.85;99680;1291;138163;-70
2022/12/27 08:14:31;;;;;;;13.50;3.70;;;;;;;4.46;84.40;100205.95;99726;1289;107210;-70
2022/12/27 08:17:03;;;;;;;15.10;3.40;;;;;;;4.47;84.63;100204.58;99806;1287;138817;-70
2022/12/27 08:19:30;;;;;;;11.10;3.50;;;;;;;4.49;84.38;100212.84;99859;1290;107303;-70
2022/12/27 08:21:57;;;;;;;10.70;3.40;;;;;;;4.49;84.49;100220.58;99876;1290;97840;-70
2022/12/27 08:24:24;;;;;;;12.10;3.40;;;;;;;4.49;84.46;100221.44;99946;1284;138020;-70
2022/12/27 08:26:51;;;;;;;14.10;3.80;;;;;;;4.47;84.48;100230.22;99938;1291;107925;-69
2022/12/27 08:29:18;;;;;;;15.90;3.70;;;;;;;4.45;84.53;100232.83;99934;1291;138086;-69
2022/12/27 08:31:45;;;;;;;11.00;3.20;;;;;;;4.42;84.53;100229.06;100042;1289;106960;-69
2022/12/27 08:34:12;;;;;;;14.60;4.00;;;;;;;4.42;84.50;100229.40;100019;1290;98502;-68
2022/12/27 08:36:40;;;;;;;12.30;3.30;;;;;;;4.48;84.66;100230.41;99846;1291;138170;-69
2022/12/27 08:39:24;;;;;;;14.30;3.70;;;;;;;4.51;84.59;100229.02;99908;1292;107519;-70
2022/12/27 08:41:51;;;;;;;12.30;3.50;;;;;;;4.62;84.92;100235.11;99726;1291;138157;-70
2022/12/27 08:44:19;;;;;;;14.10;3.40;;;;;;;4.69;84.44;100231.79;99890;1291;108480;-68
2022/12/27 08:46:47;;;;;;;13.30;3.80;;;;;;;4.70;84.33;100240.73;99780;1290;138144;-68
2022/12/27 08:49:14;;;;;;;12.50;3.40;;;;;;;4.72;84.16;100236.93;100327;1291;111483;-68
2022/12/27 08:51:40;;;;;;;12.70;3.00;;;;;;;4.75;84.24;100240.34;99892;1291;108101;-68
2022/12/27 08:54:08;;;;;;;12.50;3.30;;;;;;;4.75;84.05;100248.61;100289;1292;137456;-68
2022/12/27 08:56:36;;;;;;;15.30;4.20;;;;;;;4.74;84.07;100251.38;100046;1290;108179;-69
2022/12/27 08:59:04;;;;;;;17.20;4.00;;;;;;;4.69;84.05;100251.60;99993;1291;138240;-68
2022/12/27 09:01:31;;;;;;;12.20;3.80;;;;;;;4.67;84.04;100260.55;99858;1284;111053;-68
2022/12/27 09:03:59;;;;;;;10.50;3.70;;;;;;;4.67;84.16;100260.91;99903;1290;108425;-68
2022/12/27 09:06:26;;;;;;;12.50;3.60;;;;;;;4.67;84.46;100268.84;99619;1291;138482;-68
2022/12/27 09:08:55;;;;;;;17.70;3.10;;;;;;;4.68;84.41;100272.44;100051;1290;108141;-69
2022/12/27 09:11:24;;;;;;;14.50;3.80;;;;;;;4.67;84.05;100272.61;100090;1283;138335;-71
2022/12/27 09:13:51;;;;;;;14.40;3.90;;;;;;;4.63;84.07;100278.31;99728;1293;113006;-69
2022/12/27 09:16:20;;;;;;;13.70;3.50;;;;;;;4.62;84.08;100275.40;99769;1291;106964;-70
2022/12/27 09:18:50;;;;;;;9.60;3.20;;;;;;;4.59;83.98;100273.70;99774;1291;139645;-70
2022/12/27 09:21:19;;;;;;;14.40;3.50;;;;;;;4.54;83.79;100271.00;99752;1290;107507;-70
2022/12/27 09:23:47;;;;;;;9.20;3.10;;;;;;;4.50;83.84;100276.89;99663;1291;138061;-69
2022/12/27 09:26:16;;;;;;;14.80;3.60;;;;;;;4.45;83.72;100277.08;99731;1287;111219;-69
2022/12/27 09:28:44;;;;;;;11.40;3.50;;;;;;;4.41;84.00;100282.27;99645;1291;138926;-69
2022/12/27 09:31:12;;;;;;;13.10;3.30;;;;;;;4.39;84.08;100281.07;99783;1284;97862;-70
2022/12/27 09:33:40;;;;;;;8.80;3.00;;;;;;;4.39;84.48;100274.52;99816;1285;107170;-68
2022/12/27 09:36:09;;;;;;;14.70;3.80;;;;;;;4.45;84.42;100274.83;99718;1291;138022;-69
2022/12/27 09:38:38;;;;;;;13.10;3.40;;;;;;;4.51;84.52;100276.52;100960;1297;110227;-69
2022/12/27 09:41:13;;;;;;;12.10;3.40;;;;;;;4.57;84.35;100282.52;99592;1290;138566;-69
2022/12/27 09:44:02;;;;;;;11.60;2.70;;;;;;;4.61;84.21;100281.27;99831;1292;97818;-69
2022/12/27 09:46:39;;;;;;;11.90;4.00;;;;;;;4.63;84.07;100279.02;99775;1290;107597;-69
2022/12/27 09:49:09;;;;;;;10.60;4.00;;;;;;;4.68;84.22;100277.27;99813;1290;97713;-68
2022/12/27 09:51:47;;;;;;;12.80;4.80;;;;;;;4.73;84.40;100282.90;99850;1291;113063;-69
2022/12/27 09:54:19;;;;;;;17.30;7.50;;;;;;;4.77;84.00;100284.08;99880;1284;138312;-69
2022/12/27 09:56:47;;;;;;;9.50;3.70;;;;;;;4.79;83.99;100286.13;99865;1297;97823;-69
2022/12/27 09:59:39;;;;;;;15.30;4.20;;;;;;;4.81;83.57;100280.23;99761;1290;137560;-70
2022/12/27 10:02:20;;;;;;;13.70;4.10;;;;;;;4.79;83.62;100291.11;99952;1291;97838;-70
2022/12/27 10:04:48;;;;;;;13.90;4.30;;;;;;;4.76;83.84;100286.66;100183;1294;138008;-68
2022/12/27 10:07:47;;;;;;;10.90;4.50;;;;;;;4.75;84.08;100299.94;100508;1291;107891;-71
2022/12/27 10:10:25;;;;;;;12.20;3.90;;;;;;;4.73;83.62;100304.09;99899;1291;98342;-71
2022/12/27 10:13:09;;;;;;;9.20;3.40;;;;;;;4.72;83.41;100304.62;99690;1290;139298;-70
2022/12/27 10:15:47;;;;;;;15.60;4.10;;;;;;;4.71;83.43;100305.66;99832;1296;97840;-71
2022/12/27 10:18:27;;;;;;;11.20;3.50;;;;;;;4.70;83.28;100306.18;99649;1292;138244;-70
2022/12/27 10:21:05;;;;;;;14.00;4.10;;;;;;;4.71;83.13;100309.27;100998;1299;107904;-71
2022/12/27 10:23:35;;;;;;;10.80;3.40;;;;;;;4.71;83.05;100309.96;100123;1291;138502;-68
2022/12/27 10:26:07;;;;;;;12.10;3.80;;;;;;;4.71;82.93;100304.63;99805;1293;107592;-68
2022/12/27 10:28:41;;;;;;;16.70;4.30;;;;;;;4.73;82.78;100307.70;99835;1297;97862;-70
2022/12/27 10:31:14;;;;;;;14.40;4.30;;;;;;;4.77;82.88;100305.27;99771;1299;111522;-72
2022/12/27 10:33:44;;;;;;;16.00;4.40;;;;;;;4.80;82.60;100296.96;99774;1284;107311;-73
2022/12/27 10:36:15;;;;;;;12.10;4.60;;;;;;;4.81;82.60;100302.63;99700;1283;137527;-72
2022/12/27 10:38:42;;;;;;;11.40;4.70;;;;;;;4.82;82.40;100301.23;99634;1297;107921;-73
2022/12/27 10:41:25;;;;;;;10.20;4.00;;;;;;;4.86;82.21;100299.52;99742;1297;138327;-74
2022/12/27 10:43:54;;;;;;;14.60;4.20;;;;;;;4.90;82.08;100307.05;99875;1290;111087;-76
2022/12/27 10:46:23;;;;;;;9.90;4.30;;;;;;;4.97;82.31;100305.79;99820;1296;107365;-75
2022/12/27 10:49:00;;;;;;;11.10;4.30;;;;;;;5.02;82.10;100316.77;99904;1291;137870;-75
2022/12/27 10:51:47;;;;;;;11.50;4.60;;;;;;;5.03;82.18;100317.81;99878;1296;107178;-73
2022/12/27 10:54:17;;;;;;;13.60;4.40;;;;;;;5.05;81.73;100313.14;99701;1290;138394;-73
2022/12/27 10:56:44;;;;;;;12.40;4.40;;;;;;;5.04;81.36;100314.36;99964;1296;110112;-75
2022/12/27 10:59:16;;;;;;;16.30;4.90;;;;;;;5.01;81.61;100310.05;99815;1290;138292;-75
2022/12/27 11:01:44;;;;;;;14.90;4.40;;;;;;;4.99;81.29;100311.96;100179;1288;97938;-76
2022/12/27 11:04:15;;;;;;;9.90;4.70;;;;;;;4.98;81.27;100309.91;99926;1299;107359;-75
2022/12/27 11:06:50;;;;;;;11.10;4.20;;;;;;;5.01;81.16;100303.33;99827;1297;137804;-74
2022/12/27 11:09:26;;;;;;;12.80;3.60;;;;;;;5.11;80.65;100296.19;99830;1296;110293;-76
2022/12/27 11:12:11;;;;;;;11.00;3.60;;;;;;;5.18;79.45;100297.33;99894;1292;138487;-73
2022/12/27 11:14:38;;;;;;;14.20;2.80;;;;;;;5.17;78.99;100295.09;100043;1292;98324;-74
2022/12/27 11:17:10;;;;;;;9.40;3.00;;;;;;;5.17;78.75;100291.12;99807;1293;138273;-73
2022/12/27 11:19:40;;;;;;;10.20;3.10;;;;;;;5.22;78.91;100300.75;99860;1299;97826;-73
2022/12/27 11:22:09;;;;;;;10.40;3.60;;;;;;;5.29;78.60;100309.47;99913;1288;109977;-72
2022/12/27 11:24:36;;;;;;;11.70;3.80;;;;;;;5.34;78.56;100307.52;99719;1291;137349;-73
2022/12/27 11:27:04;;;;;;;15.80;4.30;;;;;;;5.36;78.61;100317.31;99903;1290;98509;-73
2022/12/27 11:29:34;;;;;;;12.50;3.80;;;;;;;5.39;77.75;100308.17;99811;1290;137995;-74
2022/12/27 11:32:07;;;;;;;9.10;3.70;;;;;;;5.42;77.75;100311.77;99887;1296;97842;-73
2022/12/27 11:34:37;;;;;;;11.90;3.30;;;;;;;5.57;76.61;100319.02;99909;1290;111134;-74
2022/12/27 11:37:11;;;;;;;9.20;2.80;;;;;;;5.67;76.73;100319.94;100922;1290;106146;-74
2022/12/27 11:39:42;;;;;;;9.00;3.10;;;;;;;5.81;76.90;100326.16;99922;1295;97702;-73
2022/12/27 11:42:16;;;;;;;10.70;3.20;;;;;;;5.88;75.53;100325.04;99854;1297;137939;-72
2022/12/27 11:44:47;;;;;;;11.10;3.70;;;;;;;5.85;75.10;100335.44;100114;1298;97854;-74
2022/12/27 11:47:23;;;;;;;14.20;3.80;;;;;;;5.75;74.95;100344.17;99872;1293;138803;-73
2022/12/27 11:49:55;;;;;;;11.90;3.40;;;;;;;5.61;75.12;100350.88;99878;1290;107920;-74
2022/12/27 11:52:42;;;;;;;11.60;3.80;;;;;;;5.48;75.24;100345.84;99944;1297;97827;-74
2022/12/27 11:55:33;;;;;;;;;;;;;;;5.33;74.96;100347.52;99944;1291;107323;-75
2022/12/27 11:58:27;;;;;;;11.60;3.80;;;;;;;5.18;75.05;100346.80;99947;1290;97855;-74
2022/12/27 12:01:06;;;;;;;12.90;3.80;;;;;;;5.06;75.15;100353.45;99830;1290;137197;-74
2022/12/27 12:03:51;;;;;;;10.30;3.80;;;;;;;4.95;75.22;100357.66;100063;1296;107152;-74
2022/12/27 12:06:29;;;;;;;8.60;3.80;;;;;;;4.85;75.83;100367.39;99844;1294;138278;-73
2022/12/27 12:09:18;;;;;;;10.10;4.10;;;;;;;4.77;76.11;100372.61;100266;1290;108029;-74
2022/12/27 12:12:08;;;;;;;9.70;3.90;;;;;;;4.72;76.17;100369.73;99837;1292;140290;-73
2022/12/27 12:14:58;;;;;;;10.60;4.40;;;;;;;4.66;75.96;100367.69;99915;1282;111029;-72
2022/12/27 12:17:41;;;;;;;14.30;4.10;;;;;;;4.59;76.96;100373.08;99717;1290;138347;-75
2022/12/27 12:20:36;;;;;;;11.50;3.70;;;;;;;4.64;78.78;100373.73;99729;1295;97897;-77
2022/12/27 12:23:10;;;;;;;12.20;4.10;;;;;;;4.71;78.68;100367.83;99820;1292;138234;-76
2022/12/27 12:26:09;;;;;;;12.40;3.80;;;;;;;4.81;78.89;100383.60;100149;1291;97766;-80
2022/12/27 12:29:22;;;;;;;14.40;3.80;;;;;;;4.89;78.48;100388.73;99936;1299;111344;-72
2022/12/27 12:32:08;;;;;;;15.10;4.00;;;;;;;4.81;76.72;100389.98;100433;1281;106943;-72
2022/12/27 12:35:04;;;;;;;11.50;4.00;;;;;;;4.71;76.54;100384.54;100746;1297;97821;-72
2022/12/27 12:37:51;;;;;;;8.30;3.70;;;;;;;4.60;76.30;100386.66;99967;1290;106999;-72
2022/12/27 12:40:43;;;;;;;14.70;3.90;;;;;;;4.49;76.29;100388.11;99904;1292;97816;-72
2022/12/27 12:43:26;;;;;;;8.80;3.80;;;;;;;4.40;76.62;100392.29;99860;1296;137023;-72
2022/12/27 12:46:02;;;;;;;9.30;4.00;;;;;;;4.32;77.01;100400.59;99977;1298;108875;-72
2022/12/27 12:49:18;;;;;;;11.40;3.40;;;;;;;4.28;77.08;100390.77;99925;1291;138902;-72
2022/12/27 12:51:59;;;;;;;11.40;3.70;;;;;;;4.22;77.23;100389.77;100147;1297;107612;-73
2022/12/27 12:54:46;;;;;;;10.30;3.80;;;;;;;4.20;77.57;100406.48;99824;1290;137908;-74
2022/12/27 12:57:28;;;;;;;12.90;4.30;;;;;;;4.17;77.84;100403.58;99907;1290;111932;-72
2022/12/27 13:00:16;;;;;;;11.90;4.70;;;;;;;4.13;77.82;100410.30;99721;1290;139025;-72
2022/12/27 13:03:14;;;;;;;10.20;4.30;;;;;;;4.09;78.05;100403.59;99980;1291;99477;-74
2022/12/27 13:05:43;;;;;;;;;;;;;;;4.05;78.09;100400.52;99813;1290;137250;-73
2022/12/27 13:08:22;;;;;;;11.80;4.90;;;;;;;4.01;78.48;100402.94;99735;1290;98007;-76
2022/12/27 13:11:15;;;;;;;12.30;4.50;;;;;;;3.96;78.76;100398.48;99697;1291;110871;-74
2022/12/27 13:13:56;;;;;;;11.10;4.40;;;;;;;3.91;78.87;100403.80;99769;1290;108260;-73
2022/12/27 13:16:35;;;;;;;11.90;5.10;;;;;;;3.91;79.36;100400.20;99820;1291;97895;-76
2022/12/27 13:19:20;;;;;;;13.00;4.80;;;;;;;3.93;79.42;100396.75;99938;1290;138007;-74
2022/12/27 13:22:01;;;;;;;13.70;5.00;;;;;;;3.95;79.41;100403.30;100913;1292;97326;-73
2022/12/27 13:24:57;;;;;;;15.90;5.30;;;;;;;3.97;79.60;100403.64;99808;1284;137486;-75
2022/12/27 13:27:34;;;;;;;15.00;5.30;;;;;;;3.99;79.90;100406.21;99863;1296;108143;-75